Airport View

Enter AWOS ICAO identifier for current METAR.

ex. KFNL

KFLY 250035Z AUTO 33013G23KT 3SM -SN SCT026 BKN036 OVC050 03/02 A3008 RMK AO2 LTG DSNT NE AND S T00320018

25 May 2020 00:58

Frequency: 118.450

Phone: 719-683-5371

Other Area AWOS: KCOS - KAFF - KMNH - KFCS

TAF KCOS 242341Z 2500/2524 36022G32KT 6SM -SHRA VCTS SCT035CB OVC050 FM250200 35020G30KT 5SM -SHRA BR SCT010 OVC020 FM250800 34010KT 6SM BR SCT025 BKN050 FM251600 35010KT P6SM SCT050 BKN100